createdAt,value
2018-01-06T00:02:09.053Z,5.30
2018-01-06T00:04:36.670Z,5.10
2018-01-06T00:07:05.098Z,5.30
2018-01-06T00:09:32.963Z,5.20
2018-01-06T00:12:00.934Z,5.30
2018-01-06T00:14:28.553Z,5.10
2018-01-06T00:16:56.170Z,5.20
2018-01-06T00:19:23.826Z,5.00
2018-01-06T00:21:51.690Z,5.00
2018-01-06T00:24:19.353Z,5.10
2018-01-06T00:26:47.006Z,5.10
2018-01-06T00:29:14.899Z,5.10
2018-01-06T00:31:42.562Z,5.20
2018-01-06T00:34:10.185Z,5.50
2018-01-06T00:36:37.841Z,5.60
2018-01-06T00:39:06.077Z,5.10
2018-01-06T00:41:33.756Z,5.20
2018-01-06T00:44:01.378Z,5.00
2018-01-06T00:46:29.324Z,5.00
2018-01-06T00:48:57.473Z,5.00
2018-01-06T00:51:25.126Z,5.10
2018-01-06T00:53:52.750Z,5.50
2018-01-06T00:56:20.416Z,5.60
2018-01-06T00:58:48.072Z,5.40
2018-01-06T01:01:15.865Z,5.40
2018-01-06T01:03:44.232Z,5.40
2018-01-06T01:06:12.671Z,5.70
2018-01-06T01:08:40.293Z,5.60
2018-01-06T01:11:07.909Z,5.40
2018-01-06T01:13:35.632Z,5.40
2018-01-06T01:16:03.249Z,5.30
2018-01-06T01:18:30.900Z,5.40
2018-01-06T01:20:58.627Z,5.40
2018-01-06T01:23:26.597Z,5.40
2018-01-06T01:25:54.217Z,5.40
2018-01-06T01:28:21.841Z,5.40
2018-01-06T01:30:50.279Z,5.60
2018-01-06T01:33:18.690Z,5.40
2018-01-06T01:35:46.357Z,5.40
2018-01-06T01:38:14.094Z,5.40
2018-01-06T01:40:41.748Z,5.30
2018-01-06T01:43:11.166Z,5.10
2018-01-06T01:45:39.430Z,5.50
2018-01-06T01:48:07.085Z,5.00
2018-01-06T01:50:34.702Z,5.00
2018-01-06T01:53:02.361Z,5.10
2018-01-06T01:55:29.994Z,5.20
2018-01-06T01:57:57.657Z,5.00
2018-01-06T02:00:25.278Z,5.00
2018-01-06T02:02:52.934Z,5.00
2018-01-06T02:05:21.226Z,5.00
2018-01-06T02:07:49.094Z,5.00
2018-01-06T02:10:16.945Z,5.20
2018-01-06T02:12:44.572Z,5.30
2018-01-06T02:15:12.201Z,5.30
2018-01-06T02:17:39.851Z,5.30
2018-01-06T02:20:07.470Z,5.30
2018-01-06T02:22:35.121Z,5.10
2018-01-06T02:25:02.741Z,5.50
2018-01-06T02:27:30.399Z,5.60
2018-01-06T02:29:58.958Z,5.00
2018-01-06T02:32:26.645Z,5.10
2018-01-06T02:34:54.269Z,5.40
2018-01-06T02:37:21.922Z,5.00
2018-01-06T02:39:49.586Z,5.10
2018-01-06T02:42:17.354Z,5.30
2018-01-06T02:44:45.006Z,5.30
2018-01-06T02:47:12.622Z,5.30
2018-01-06T02:49:40.274Z,5.40
2018-01-06T02:52:07.989Z,5.30
2018-01-06T02:54:35.646Z,5.30
2018-01-06T02:57:03.426Z,5.40
2018-01-06T02:59:31.498Z,5.40
2018-01-06T03:01:59.263Z,5.40
2018-01-06T03:04:26.877Z,5.40
2018-01-06T03:06:54.540Z,5.40
2018-01-06T03:09:22.153Z,5.40
2018-01-06T03:11:49.805Z,5.30
2018-01-06T03:14:18.113Z,5.40
2018-01-06T03:16:46.531Z,6.00
2018-01-06T03:19:14.277Z,5.90
2018-01-06T03:21:41.956Z,5.70
2018-01-06T03:24:09.569Z,5.90
2018-01-06T03:26:37.241Z,5.70
2018-01-06T03:29:04.893Z,5.90
2018-01-06T03:31:33.380Z,5.60
2018-01-06T03:34:01.785Z,5.60
2018-01-06T03:36:29.403Z,5.70
2018-01-06T03:38:57.837Z,5.70
2018-01-06T03:41:25.506Z,5.90
2018-01-06T03:43:53.381Z,5.70
2018-01-06T03:46:21.029Z,5.80
2018-01-06T03:48:48.724Z,5.60
2018-01-06T03:51:16.349Z,5.70
2018-01-06T03:53:43.997Z,5.90
2018-01-06T03:56:11.653Z,5.70
2018-01-06T03:58:39.270Z,5.90
2018-01-06T04:01:06.932Z,5.80
2018-01-06T04:03:35.327Z,5.70
2018-01-06T04:06:02.941Z,6.00
2018-01-06T04:08:30.785Z,5.90
2018-01-06T04:10:58.406Z,5.80
2018-01-06T04:13:27.636Z,6.00
2018-01-06T04:15:55.277Z,5.90
2018-01-06T04:18:22.928Z,5.80
2018-01-06T04:20:50.549Z,6.00
2018-01-06T04:23:18.213Z,5.90
2018-01-06T04:25:45.850Z,5.90
2018-01-06T04:28:13.484Z,5.70
2018-01-06T04:30:41.141Z,5.80
2018-01-06T04:33:09.577Z,5.90
2018-01-06T04:35:37.318Z,5.80
2018-01-06T04:38:05.086Z,5.70
2018-01-06T04:40:32.707Z,5.90
2018-01-06T04:43:00.357Z,5.80
2018-01-06T04:45:27.979Z,5.60
2018-01-06T04:47:55.646Z,5.70
2018-01-06T04:50:24.134Z,5.80
2018-01-06T04:52:51.778Z,5.30
2018-01-06T04:55:20.201Z,5.90
2018-01-06T04:57:47.839Z,5.90
2018-01-06T05:00:16.407Z,5.90
2018-01-06T05:02:44.065Z,5.90
2018-01-06T05:05:11.728Z,5.70
2018-01-06T05:07:40.122Z,5.70
2018-01-06T05:10:08.766Z,5.70
2018-01-06T05:12:37.110Z,6.10
2018-01-06T05:15:04.762Z,5.60
2018-01-06T05:17:33.173Z,5.60
2018-01-06T05:20:00.785Z,5.60
2018-01-06T05:22:28.449Z,5.60
2018-01-06T05:24:56.261Z,5.70
2018-01-06T05:27:24.466Z,5.90
2018-01-06T05:29:52.134Z,5.70
2018-01-06T05:32:20.522Z,5.70
2018-01-06T05:34:48.329Z,6.10
2018-01-06T05:37:15.989Z,5.70
2018-01-06T05:39:43.846Z,5.90
2018-01-06T05:42:11.835Z,5.80
2018-01-06T05:44:39.488Z,5.90
2018-01-06T05:47:07.135Z,5.80
2018-01-06T05:49:34.813Z,5.90
2018-01-06T05:52:02.477Z,5.80
2018-01-06T05:54:31.609Z,5.60
2018-01-06T05:57:00.042Z,6.00
2018-01-06T05:59:27.703Z,6.00
2018-01-06T06:01:55.357Z,5.60
2018-01-06T06:04:23.277Z,5.70
2018-01-06T06:06:51.701Z,5.80
2018-01-06T06:09:19.322Z,5.60
2018-01-06T06:11:46.979Z,5.70
2018-01-06T06:14:14.633Z,5.60
2018-01-06T06:16:43.066Z,5.90
2018-01-06T06:19:10.686Z,6.10
2018-01-06T06:21:38.349Z,5.70
2018-01-06T06:24:05.961Z,5.60
2018-01-06T06:26:34.242Z,5.70
2018-01-06T06:29:01.894Z,5.70
2018-01-06T06:31:29.530Z,5.60
2018-01-06T06:33:57.331Z,5.70
2018-01-06T06:36:24.948Z,5.50
2018-01-06T06:38:52.610Z,5.90
2018-01-06T06:41:20.289Z,5.80
2018-01-06T06:43:47.945Z,5.90
2018-01-06T06:46:15.878Z,5.60
2018-01-06T06:48:43.493Z,5.70
2018-01-06T06:51:11.150Z,5.60
2018-01-06T06:53:39.722Z,5.60
2018-01-06T06:56:07.394Z,5.80
2018-01-06T06:58:35.049Z,5.60
2018-01-06T07:01:02.770Z,5.60
2018-01-06T07:03:30.385Z,5.70
2018-01-06T07:05:58.045Z,6.00
2018-01-06T07:08:26.445Z,5.70
2018-01-06T07:10:54.141Z,5.60
2018-01-06T07:13:22.126Z,5.60
2018-01-06T07:15:49.890Z,5.60
2018-01-06T07:18:17.649Z,5.60
2018-01-06T07:20:45.418Z,5.60
2018-01-06T07:23:13.081Z,5.60
2018-01-06T07:25:40.698Z,5.60
2018-01-06T07:28:08.705Z,5.60
2018-01-06T07:30:36.531Z,5.60
2018-01-06T07:33:07.513Z,5.60
2018-01-06T07:35:36.650Z,5.60
2018-01-06T07:38:04.432Z,5.80
2018-01-06T07:40:32.093Z,5.60
2018-01-06T07:43:00.032Z,5.60
2018-01-06T07:45:28.883Z,5.60
2018-01-06T07:47:56.533Z,5.80
2018-01-06T07:50:25.621Z,5.60
2018-01-06T07:52:55.272Z,5.70
2018-01-06T07:55:23.121Z,5.90
2018-01-06T07:57:50.785Z,5.80
2018-01-06T08:00:18.449Z,5.60
2018-01-06T08:02:46.295Z,5.60
2018-01-06T08:05:14.672Z,5.70
2018-01-06T08:07:42.289Z,5.90
2018-01-06T08:10:09.957Z,5.80
2018-01-06T08:12:39.435Z,5.60
2018-01-06T08:15:07.057Z,5.60
2018-01-06T08:17:36.133Z,5.60
2018-01-06T08:20:04.781Z,5.70
2018-01-06T08:22:32.801Z,5.70
2018-01-06T08:25:00.866Z,5.80
2018-01-06T08:27:28.486Z,5.60
2018-01-06T08:29:56.149Z,5.70
2018-01-06T08:32:25.752Z,5.60
2018-01-06T08:34:54.695Z,5.60
2018-01-06T08:37:22.342Z,5.60
2018-01-06T08:39:52.146Z,5.60
2018-01-06T08:42:21.722Z,5.70
2018-01-06T08:44:50.281Z,5.90
2018-01-06T08:47:20.084Z,5.90
2018-01-06T08:49:47.714Z,5.80
2018-01-06T08:52:15.370Z,5.60
2018-01-06T08:54:45.719Z,5.60
2018-01-06T08:57:14.501Z,5.60
2018-01-06T08:59:42.109Z,5.80
2018-01-06T09:02:10.454Z,5.50
2018-01-06T09:04:39.106Z,5.70
2018-01-06T09:07:08.071Z,5.50
2018-01-06T09:09:36.704Z,5.60
2018-01-06T09:12:04.377Z,5.70
2018-01-06T09:14:32.536Z,5.90
2018-01-06T09:17:01.385Z,5.70
2018-01-06T09:19:29.044Z,5.60
2018-01-06T09:21:59.085Z,5.60
2018-01-06T09:24:27.482Z,5.70
2018-01-06T09:26:57.046Z,5.80
2018-01-06T09:29:26.032Z,5.60
2018-01-06T09:31:56.277Z,5.80
2018-01-06T09:34:25.803Z,5.70
2018-01-06T09:36:57.077Z,5.90
2018-01-06T09:39:24.714Z,5.90
2018-01-06T09:41:53.888Z,5.80
2018-01-06T09:44:21.548Z,5.70
2018-01-06T09:46:49.173Z,5.60
2018-01-06T09:49:17.273Z,5.70
2018-01-06T09:51:44.955Z,5.90
2018-01-06T09:54:13.703Z,5.80
2018-01-06T09:56:41.385Z,5.60
2018-01-06T09:59:09.001Z,5.60
2018-01-06T10:01:37.481Z,5.70
2018-01-06T10:04:05.690Z,6.20
2018-01-06T10:06:33.552Z,5.90
2018-01-06T10:09:01.213Z,5.80
2018-01-06T10:11:29.293Z,6.30
2018-01-06T10:13:56.929Z,6.00
2018-01-06T10:16:25.211Z,5.90
2018-01-06T10:18:52.877Z,5.70
2018-01-06T10:21:23.359Z,6.10
2018-01-06T10:23:51.474Z,5.70
2018-01-06T10:26:19.097Z,6.10
2018-01-06T10:28:46.761Z,5.70
2018-01-06T10:31:16.187Z,6.10
2018-01-06T10:33:48.056Z,5.80
2018-01-06T10:36:16.045Z,5.70
2018-01-06T10:38:43.888Z,6.00
2018-01-06T10:41:11.526Z,6.10
2018-01-06T10:43:39.209Z,6.20
2018-01-06T10:46:06.822Z,6.20
2018-01-06T10:48:34.719Z,6.20
2018-01-06T10:51:02.359Z,6.20
2018-01-06T10:53:32.496Z,6.30
2018-01-06T10:56:02.547Z,5.90
2018-01-06T10:58:32.947Z,6.00
2018-01-06T11:04:04.651Z,6.00
2018-01-06T11:06:32.810Z,6.10
2018-01-06T11:09:00.690Z,5.60
2018-01-06T11:11:30.177Z,5.70
2018-01-06T11:14:00.421Z,6.00
2018-01-06T11:16:30.324Z,5.70
2018-01-06T11:19:00.071Z,6.10
2018-01-06T11:21:29.811Z,6.00
2018-01-06T11:23:59.722Z,6.10
2018-01-06T11:26:29.879Z,5.70
2018-01-06T11:29:00.245Z,6.20
2018-01-06T11:31:29.773Z,6.20
2018-01-06T11:33:59.864Z,6.00
2018-01-06T11:36:30.585Z,6.10
2018-01-06T11:39:00.707Z,5.70
2018-01-06T11:41:30.855Z,6.00
2018-01-06T11:43:58.512Z,5.90
2018-01-06T11:46:26.184Z,5.80
2018-01-06T11:48:53.865Z,5.70
2018-01-06T11:51:21.526Z,6.00
2018-01-06T11:53:49.173Z,5.90
2018-01-06T11:56:16.845Z,5.80
2018-01-06T11:58:44.475Z,5.60
2018-01-06T12:01:12.161Z,6.30
2018-01-06T12:03:40.368Z,5.60
2018-01-06T12:06:08.192Z,5.70
2018-01-06T12:08:35.838Z,6.20
2018-01-06T12:11:03.646Z,5.90
2018-01-06T12:13:31.498Z,5.70
2018-01-06T12:15:59.860Z,6.00
2018-01-06T12:18:27.519Z,6.20
2018-01-06T12:20:55.195Z,5.90
2018-01-06T12:23:22.870Z,5.80
2018-01-06T12:25:51.296Z,6.20
2018-01-06T12:28:18.989Z,6.10
2018-01-06T12:30:46.629Z,5.70
2018-01-06T12:33:14.897Z,6.20
2018-01-06T12:35:42.882Z,6.10
2018-01-06T12:38:10.541Z,6.00
2018-01-06T12:40:38.218Z,6.10
2018-01-06T12:43:05.834Z,5.90
2018-01-06T12:45:33.772Z,6.10
2018-01-06T12:48:01.421Z,6.00
2018-01-06T12:50:29.038Z,6.20
2018-01-06T12:52:56.916Z,6.20
2018-01-06T12:55:24.597Z,6.20
2018-01-06T12:57:53.034Z,6.10
2018-01-06T13:00:20.724Z,6.10
2018-01-06T13:02:48.345Z,6.10
2018-01-06T13:05:16.015Z,6.10
2018-01-06T13:07:43.671Z,6.10
2018-01-06T13:10:11.546Z,6.10
2018-01-06T13:12:39.914Z,6.00
2018-01-06T13:15:08.222Z,6.20
2018-01-06T13:17:35.983Z,6.50
2018-01-06T13:20:03.629Z,6.30
2018-01-06T13:22:31.278Z,6.00
2018-01-06T13:24:58.958Z,6.30
2018-01-06T13:27:26.589Z,5.90
2018-01-06T13:29:54.362Z,6.20
2018-01-06T13:32:22.074Z,5.70
2018-01-06T13:34:49.784Z,5.60
2018-01-06T13:37:17.460Z,5.40
2018-01-06T13:39:46.626Z,5.30
2018-01-06T13:42:14.238Z,5.20
2018-01-06T13:44:42.078Z,5.30
2018-01-06T13:47:10.399Z,5.20
2018-01-06T13:49:39.135Z,4.90
2018-01-06T13:52:06.916Z,5.00
2018-01-06T13:54:35.573Z,4.70
2018-01-06T13:57:03.298Z,5.20
2018-01-06T13:59:31.010Z,4.70
2018-01-06T14:01:59.197Z,4.60
2018-01-06T14:04:26.873Z,4.70
2018-01-06T14:06:54.513Z,4.60
2018-01-06T14:09:22.165Z,4.70
2018-01-06T14:11:49.789Z,4.60
2018-01-06T14:14:17.398Z,4.50
2018-01-06T14:16:45.786Z,4.30
2018-01-06T14:19:13.610Z,4.30
2018-01-06T14:21:41.269Z,4.40
2018-01-06T14:24:09.098Z,4.30
2018-01-06T14:26:37.481Z,4.40
2018-01-06T14:29:05.129Z,4.20
2018-01-06T14:31:33.838Z,4.50
2018-01-06T14:34:01.462Z,4.30
2018-01-06T14:36:30.802Z,4.30
2018-01-06T14:38:58.453Z,4.50
2018-01-06T14:41:26.343Z,4.40
2018-01-06T14:43:54.336Z,4.30
2018-01-06T14:46:21.986Z,4.30
2018-01-06T14:48:49.750Z,4.40
2018-01-06T14:51:17.406Z,4.40
2018-01-06T14:53:45.020Z,4.40
2018-01-06T14:56:12.661Z,4.40
2018-01-06T14:58:40.618Z,4.30
2018-01-06T15:01:09.064Z,4.40
2018-01-06T15:03:36.737Z,4.20
2018-01-06T15:06:04.488Z,4.00
2018-01-06T15:08:32.105Z,4.20
2018-01-06T15:10:59.928Z,4.40
2018-01-06T15:13:27.549Z,4.30
2018-01-06T15:15:55.231Z,4.30
2018-01-06T15:18:22.900Z,4.40
2018-01-06T15:20:50.678Z,4.40
2018-01-06T15:23:18.290Z,4.00
2018-01-06T15:25:45.929Z,3.90
2018-01-06T15:28:14.336Z,4.10
2018-01-06T15:30:41.950Z,4.10
2018-01-06T15:33:10.102Z,4.20
2018-01-06T15:35:37.731Z,3.90
2018-01-06T15:38:05.373Z,4.20
2018-01-06T15:40:32.999Z,4.20
2018-01-06T15:43:00.642Z,4.30
2018-01-06T15:45:28.322Z,4.40
2018-01-06T15:47:55.946Z,4.40
2018-01-06T15:50:24.967Z,4.40
2018-01-06T15:52:52.582Z,4.40
2018-01-06T15:55:20.425Z,4.10
2018-01-06T15:57:48.505Z,4.20
2018-01-06T16:00:16.202Z,4.00
2018-01-06T16:02:43.821Z,4.10
2018-01-06T16:05:11.475Z,3.90
2018-01-06T16:07:39.087Z,3.90
2018-01-06T16:10:06.777Z,4.00
2018-01-06T16:12:34.443Z,4.00
2018-01-06T16:15:02.614Z,4.00
2018-01-06T16:17:30.223Z,4.00
2018-01-06T16:19:57.890Z,4.10
2018-01-06T16:22:25.746Z,3.60
2018-01-06T16:24:53.366Z,3.70
2018-01-06T16:27:21.005Z,4.20
2018-01-06T16:29:49.422Z,3.80
2018-01-06T16:32:17.042Z,3.80
2018-01-06T16:34:46.902Z,3.80
2018-01-06T16:37:23.092Z,3.80
2018-01-06T16:40:03.782Z,3.90
2018-01-06T16:42:31.502Z,3.60
2018-01-06T16:44:59.531Z,4.00
2018-01-06T16:47:28.091Z,3.80
2018-01-06T16:49:56.803Z,3.80
2018-01-06T16:52:25.402Z,3.80
2018-01-06T16:54:53.850Z,3.80
2018-01-06T16:57:23.778Z,3.70
2018-01-06T16:59:52.446Z,3.80
2018-01-06T17:02:20.941Z,3.60
2018-01-06T17:04:48.635Z,3.60
2018-01-06T17:07:17.156Z,3.60
2018-01-06T17:09:45.226Z,3.20
2018-01-06T17:12:13.687Z,3.40
2018-01-06T17:14:43.308Z,3.40
2018-01-06T17:17:11.974Z,3.40
2018-01-06T17:19:39.658Z,3.40
2018-01-06T17:22:07.345Z,3.40
2018-01-06T17:24:36.035Z,3.40
2018-01-06T17:27:03.928Z,3.40
2018-01-06T17:29:31.605Z,3.40
2018-01-06T17:31:59.369Z,3.40
2018-01-06T17:34:27.014Z,3.40
2018-01-06T17:36:54.618Z,3.40
2018-01-06T17:39:22.558Z,3.40
2018-01-06T17:41:50.407Z,3.40
2018-01-06T17:44:18.082Z,3.50
2018-01-06T17:46:45.716Z,3.50
2018-01-06T17:49:13.388Z,3.50
2018-01-06T17:51:41.051Z,3.50
2018-01-06T17:54:08.914Z,3.50
2018-01-06T17:56:36.721Z,3.50
2018-01-06T17:59:04.342Z,3.20
2018-01-06T18:01:31.957Z,3.40
2018-01-06T18:03:59.882Z,3.40
2018-01-06T18:06:27.490Z,3.40
2018-01-06T18:08:55.185Z,3.40
2018-01-06T18:11:22.844Z,3.40
2018-01-06T18:13:50.459Z,3.40
2018-01-06T18:16:18.101Z,3.30
2018-01-06T18:18:45.712Z,3.30
2018-01-06T18:21:13.382Z,3.40
2018-01-06T18:23:41.148Z,3.30
2018-01-06T18:26:08.768Z,3.20
2018-01-06T18:28:36.586Z,3.50
2018-01-06T18:31:04.238Z,3.50
2018-01-06T18:33:32.236Z,3.50
2018-01-06T18:36:01.398Z,3.50
2018-01-06T18:38:29.846Z,3.50
2018-01-06T18:40:57.826Z,3.60
2018-01-06T18:43:26.160Z,3.20
2018-01-06T18:45:54.535Z,3.50
2018-01-06T18:48:22.724Z,3.70
2018-01-06T18:50:51.189Z,3.70
2018-01-06T18:53:19.563Z,3.30
2018-01-06T18:55:47.504Z,3.50
2018-01-06T18:58:15.150Z,3.70
2018-01-06T19:00:42.870Z,3.40
2018-01-06T19:03:10.525Z,3.50
2018-01-06T19:05:38.951Z,3.60
2018-01-06T19:08:06.608Z,3.50
2018-01-06T19:10:34.217Z,3.30
2018-01-06T19:13:02.453Z,3.50
2018-01-06T19:15:30.315Z,3.70
2018-01-06T19:17:58.664Z,3.70
2018-01-06T19:20:26.277Z,3.70
2018-01-06T19:22:53.930Z,3.80
2018-01-06T19:25:22.502Z,3.70
2018-01-06T19:27:50.149Z,3.50
2018-01-06T19:30:17.805Z,3.80
2018-01-06T19:32:45.962Z,3.60
2018-01-06T19:35:13.605Z,3.50
2018-01-06T19:37:41.249Z,3.70
2018-01-06T19:40:09.078Z,3.70
2018-01-06T19:42:36.709Z,3.70
2018-01-06T19:45:04.394Z,3.80
2018-01-06T19:47:32.985Z,3.70
2018-01-06T19:50:00.593Z,3.70
2018-01-06T19:52:28.251Z,3.70
2018-01-06T19:54:56.864Z,3.80
2018-01-06T19:57:24.517Z,3.60
2018-01-06T19:59:52.170Z,3.50
2018-01-06T20:02:20.082Z,3.40
2018-01-06T20:04:47.770Z,3.40
2018-01-06T20:07:15.479Z,3.70
2018-01-06T20:09:43.153Z,3.80
2018-01-06T20:12:11.330Z,3.40
2018-01-06T20:14:38.944Z,2.90
2018-01-06T20:17:06.589Z,3.50
2018-01-06T20:19:34.960Z,3.50
2018-01-06T20:22:03.370Z,3.60
2018-01-06T20:24:30.977Z,3.30
2018-01-06T20:26:58.625Z,3.40
2018-01-06T20:29:26.304Z,3.40
2018-01-06T20:31:53.916Z,3.40
2018-01-06T20:34:21.522Z,3.40
2018-01-06T20:36:49.174Z,3.40
2018-01-06T20:39:16.792Z,3.40
2018-01-06T20:41:44.441Z,3.40
2018-01-06T20:44:12.084Z,3.40
2018-01-06T20:46:41.082Z,3.00
2018-01-06T20:49:08.721Z,3.00
2018-01-06T20:51:37.106Z,3.10
2018-01-06T20:54:05.521Z,2.80
2018-01-06T20:56:35.066Z,3.00
2018-01-06T20:59:02.722Z,2.90
2018-01-06T21:01:30.433Z,2.90
2018-01-06T21:03:58.085Z,2.90
2018-01-06T21:06:25.733Z,2.90
2018-01-06T21:08:53.341Z,2.90
2018-01-06T21:11:22.702Z,2.50
2018-01-06T21:13:51.051Z,2.60
2018-01-06T21:16:18.713Z,2.60
2018-01-06T21:18:46.680Z,2.40
2018-01-06T21:21:14.886Z,2.50
2018-01-06T21:23:42.848Z,2.60
2018-01-06T21:26:11.447Z,2.10
2018-01-06T21:28:39.839Z,2.00
2018-01-06T21:31:07.482Z,2.30
2018-01-06T21:33:35.717Z,2.30
2018-01-06T21:36:03.441Z,2.00
2018-01-06T21:38:31.425Z,2.00
2018-01-06T21:40:59.030Z,2.50
2018-01-06T21:43:26.683Z,2.60
2018-01-06T21:45:58.045Z,2.20
2018-01-06T21:48:26.534Z,2.70
2018-01-06T21:50:54.934Z,2.80
2018-01-06T21:53:23.002Z,2.40
2018-01-06T21:55:50.779Z,2.80
2018-01-06T21:58:18.382Z,2.60
2018-01-06T22:00:46.041Z,2.70
2018-01-06T22:03:14.428Z,2.70
2018-01-06T22:05:42.036Z,2.70
2018-01-06T22:08:10.879Z,2.90
2018-01-06T22:10:41.213Z,2.40
2018-01-06T22:13:09.106Z,2.40
2018-01-06T22:15:36.768Z,2.50
2018-01-06T22:18:04.375Z,2.40
2018-01-06T22:20:32.786Z,2.90
2018-01-06T22:23:00.394Z,2.60
2018-01-06T22:25:28.981Z,2.50
2018-01-06T22:27:56.958Z,2.60
2018-01-06T22:30:26.692Z,2.50
2018-01-06T22:32:54.340Z,2.70
2018-01-06T22:35:22.671Z,2.50
2018-01-06T22:37:50.326Z,2.90
2018-01-06T22:40:17.928Z,2.80
2018-01-06T22:42:47.665Z,2.50
2018-01-06T22:45:15.273Z,2.80
2018-01-06T22:47:45.373Z,2.60
2018-01-06T22:50:12.993Z,3.10
2018-01-06T22:52:40.783Z,2.70
2018-01-06T22:55:08.600Z,2.60
2018-01-06T22:57:36.971Z,2.60
2018-01-06T23:00:06.289Z,2.70
2018-01-06T23:02:33.899Z,2.40
2018-01-06T23:05:01.861Z,2.70
2018-01-06T23:07:29.620Z,2.50
2018-01-06T23:09:58.734Z,2.80
2018-01-06T23:12:26.467Z,2.50
2018-01-06T23:14:54.790Z,2.70
2018-01-06T23:17:24.318Z,2.60
2018-01-06T23:19:51.962Z,2.70
2018-01-06T23:22:20.839Z,2.50
2018-01-06T23:24:49.931Z,2.80
2018-01-06T23:27:19.377Z,2.70
2018-01-06T23:29:47.033Z,2.60
2018-01-06T23:32:15.753Z,2.40
2018-01-06T23:34:43.401Z,2.70
2018-01-06T23:37:11.004Z,2.20
2018-01-06T23:39:39.223Z,2.30
2018-01-06T23:42:06.888Z,2.40
2018-01-06T23:44:34.497Z,2.30
2018-01-06T23:47:03.714Z,2.10
2018-01-06T23:49:31.526Z,2.00
2018-01-06T23:52:00.762Z,2.00
2018-01-06T23:54:28.377Z,1.90
2018-01-06T23:56:56.274Z,1.90
2018-01-06T23:59:24.202Z,1.90
